PTSXV SBPA-SBFL
Flight info
| Callsign | PTSXV |
|---|---|
| Flight time | 1h 20m |
| Altitude | 7000 |
| Route | KORGU2A UBNUT DCT SULPI DCT |
| Aircraft | BE58/L-SDFGRY/C |
Departure
| Time | 2026-04-23 17:17 |
|---|---|
| Airport | Porto Alegre-Salgado Filho International Airport (SBPA) |
Arrival
| Time | 2026-04-23 18:37 |
|---|---|
| Airport | Hercílio Luz International Airport (SBFL) |
| Time | Latitude | Longitude | Altitude | Speed | Heading |
|---|---|---|---|---|---|
| 2026-04-23 16:58 | -29.99718 | -51.18434 | 14 ft | 0 kts | 30° |
| 2026-04-23 17:14 | -29.99706 | -51.18432 | 14 ft | 2 kts | 345° |
| 2026-04-23 17:14 | -29.99653 | -51.18435 | 14 ft | 15 kts | 31° |
| 2026-04-23 17:15 | -29.99533 | -51.18345 | 14 ft | 22 kts | 32° |
| 2026-04-23 17:15 | -29.99518 | -51.18334 | 14 ft | 0 kts | 32° |
| 2026-04-23 17:16 | -29.99463 | -51.18295 | 15 ft | 23 kts | 36° |
| 2026-04-23 17:16 | -29.99440 | -51.18201 | 17 ft | 0 kts | 91° |
| 2026-04-23 17:17 | -29.99445 | -51.17999 | 19 ft | 73 kts | 83° |
| 2026-04-23 17:17 | -29.99460 | -51.17121 | 106 ft | 138 kts | 91° |
| 2026-04-23 17:17 | -29.99425 | -51.15876 | 330 ft | 168 kts | 91° |
| 2026-04-23 17:17 | -29.99468 | -51.14475 | 613 ft | 180 kts | 97° |
| 2026-04-23 17:18 | -29.99581 | -51.11505 | 1278 ft | 194 kts | 92° |
| 2026-04-23 17:18 | -29.99607 | -51.09941 | 1586 ft | 196 kts | 93° |
| 2026-04-23 17:18 | -29.99635 | -51.08415 | 1864 ft | 188 kts | 93° |
| 2026-04-23 17:19 | -29.99660 | -51.06925 | 2087 ft | 179 kts | 93° |
| 2026-04-23 17:19 | -29.99682 | -51.05536 | 2310 ft | 172 kts | 92° |
| 2026-04-23 17:19 | -29.99707 | -51.04165 | 2549 ft | 170 kts | 92° |
| 2026-04-23 17:19 | -29.99731 | -51.02802 | 2793 ft | 169 kts | 92° |
| 2026-04-23 17:20 | -29.99755 | -51.01442 | 3032 ft | 169 kts | 91° |
| 2026-04-23 17:20 | -29.99799 | -50.98742 | 3515 ft | 168 kts | 91° |
| 2026-04-23 17:21 | -29.99782 | -50.96074 | 3984 ft | 164 kts | 76° |
| 2026-04-23 17:21 | -29.99284 | -50.94908 | 4224 ft | 162 kts | 49° |
| 2026-04-23 17:21 | -29.97504 | -50.93381 | 4714 ft | 159 kts | 31° |
| 2026-04-23 17:22 | -29.96592 | -50.92667 | 4963 ft | 158 kts | 31° |
| 2026-04-23 17:22 | -29.94759 | -50.91256 | 5441 ft | 157 kts | 31° |
| 2026-04-23 17:23 | -29.92964 | -50.89876 | 5921 ft | 153 kts | 29° |
| 2026-04-23 17:23 | -29.92160 | -50.89257 | 6143 ft | 152 kts | 30° |
| 2026-04-23 17:23 | -29.90473 | -50.87958 | 6610 ft | 151 kts | 30° |
| 2026-04-23 17:24 | -29.89606 | -50.87292 | 6840 ft | 150 kts | 29° |
| 2026-04-23 17:24 | -29.88733 | -50.86622 | 7009 ft | 154 kts | 30° |
| 2026-04-23 17:24 | -29.86846 | -50.85167 | 7021 ft | 169 kts | 30° |
| 2026-04-23 17:25 | -29.84866 | -50.83643 | 7026 ft | 172 kts | 30° |
| 2026-04-23 17:25 | -29.83865 | -50.82876 | 7027 ft | 173 kts | 30° |
| 2026-04-23 17:26 | -29.81853 | -50.81328 | 7029 ft | 175 kts | 30° |
| 2026-04-23 17:26 | -29.79815 | -50.79762 | 7028 ft | 177 kts | 30° |
| 2026-04-23 17:27 | -29.77790 | -50.78197 | 7024 ft | 174 kts | 31° |
| 2026-04-23 17:27 | -29.76803 | -50.77433 | 7024 ft | 173 kts | 31° |
| 2026-04-23 17:27 | -29.75804 | -50.76660 | 7022 ft | 172 kts | 30° |
| 2026-04-23 17:27 | -29.74810 | -50.75892 | 7019 ft | 172 kts | 30° |
| 2026-04-23 17:28 | -29.73818 | -50.75126 | 7019 ft | 172 kts | 30° |
| 2026-04-23 17:28 | -29.72828 | -50.74361 | 7018 ft | 170 kts | 31° |
| 2026-04-23 17:28 | -29.71853 | -50.73608 | 7020 ft | 170 kts | 30° |
| 2026-04-23 17:28 | -29.70872 | -50.72852 | 7016 ft | 169 kts | 30° |
| 2026-04-23 17:29 | -29.69895 | -50.72098 | 7019 ft | 169 kts | 30° |
| 2026-04-23 17:29 | -29.68918 | -50.71343 | 7020 ft | 169 kts | 30° |
| 2026-04-23 17:29 | -29.66965 | -50.69837 | 7021 ft | 170 kts | 31° |
| 2026-04-23 17:30 | -29.66316 | -50.69335 | 7020 ft | 170 kts | 30° |
| 2026-04-23 17:30 | -29.64019 | -50.67564 | 7021 ft | 170 kts | 30° |
| 2026-04-23 17:30 | -29.63040 | -50.66812 | 7021 ft | 169 kts | 30° |
| 2026-04-23 17:31 | -29.62075 | -50.66068 | 7023 ft | 169 kts | 30° |
| 2026-04-23 17:31 | -29.61098 | -50.65314 | 7017 ft | 169 kts | 30° |
| 2026-04-23 17:31 | -29.60124 | -50.64563 | 7021 ft | 168 kts | 30° |
| 2026-04-23 17:31 | -29.59147 | -50.63811 | 7023 ft | 170 kts | 30° |
| 2026-04-23 17:32 | -29.58163 | -50.63054 | 7021 ft | 170 kts | 30° |
| 2026-04-23 17:32 | -29.57178 | -50.62297 | 7024 ft | 171 kts | 30° |
| 2026-04-23 17:32 | -29.56181 | -50.61532 | 7034 ft | 174 kts | 30° |
| 2026-04-23 17:32 | -29.55171 | -50.60753 | 7040 ft | 176 kts | 30° |
| 2026-04-23 17:33 | -29.54155 | -50.59970 | 7037 ft | 176 kts | 30° |
| 2026-04-23 17:33 | -29.53129 | -50.59180 | 7033 ft | 172 kts | 31° |
| 2026-04-23 17:33 | -29.52253 | -50.58504 | 7028 ft | 171 kts | 30° |
| 2026-04-23 17:33 | -29.51373 | -50.57832 | 7028 ft | 170 kts | 30° |
| 2026-04-23 17:34 | -29.50442 | -50.57119 | 7022 ft | 169 kts | 30° |
| 2026-04-23 17:34 | -29.49470 | -50.56374 | 7022 ft | 167 kts | 30° |
| 2026-04-23 17:34 | -29.47586 | -50.54857 | 7030 ft | 168 kts | 35° |
| 2026-04-23 17:35 | -29.46657 | -50.54016 | 7028 ft | 170 kts | 34° |
| 2026-04-23 17:35 | -29.44792 | -50.52360 | 7030 ft | 170 kts | 35° |
| 2026-04-23 17:35 | -29.43861 | -50.51530 | 7029 ft | 170 kts | 34° |
| 2026-04-23 17:36 | -29.42927 | -50.50697 | 7029 ft | 170 kts | 35° |
| 2026-04-23 17:36 | -29.41994 | -50.49864 | 7029 ft | 170 kts | 35° |
| 2026-04-23 17:36 | -29.41062 | -50.49032 | 7028 ft | 170 kts | 35° |
| 2026-04-23 17:36 | -29.40131 | -50.48201 | 7029 ft | 170 kts | 35° |
| 2026-04-23 17:37 | -29.39238 | -50.47407 | 7031 ft | 171 kts | 34° |
| 2026-04-23 17:37 | -29.38301 | -50.46569 | 7026 ft | 170 kts | 34° |
| 2026-04-23 17:37 | -29.36433 | -50.44904 | 7029 ft | 171 kts | 35° |
| 2026-04-23 17:38 | -29.35495 | -50.44067 | 7032 ft | 171 kts | 34° |
| 2026-04-23 17:38 | -29.34560 | -50.43232 | 7026 ft | 170 kts | 34° |
| 2026-04-23 17:38 | -29.33626 | -50.42402 | 7032 ft | 170 kts | 34° |
| 2026-04-23 17:38 | -29.32694 | -50.41573 | 7028 ft | 169 kts | 34° |
| 2026-04-23 17:39 | -29.31761 | -50.40745 | 7027 ft | 169 kts | 34° |
| 2026-04-23 17:39 | -29.30832 | -50.39917 | 7026 ft | 169 kts | 35° |
| 2026-04-23 17:39 | -29.29905 | -50.39090 | 7025 ft | 168 kts | 35° |
| 2026-04-23 17:39 | -29.28981 | -50.38269 | 7031 ft | 169 kts | 35° |
| 2026-04-23 17:40 | -29.28053 | -50.37443 | 7035 ft | 169 kts | 35° |
| 2026-04-23 17:40 | -29.27111 | -50.36607 | 7042 ft | 173 kts | 34° |
| 2026-04-23 17:40 | -29.26159 | -50.35759 | 7034 ft | 173 kts | 36° |
| 2026-04-23 17:40 | -29.25209 | -50.34914 | 7035 ft | 174 kts | 34° |
| 2026-04-23 17:41 | -29.24252 | -50.34065 | 7039 ft | 174 kts | 35° |
| 2026-04-23 17:41 | -29.22337 | -50.32363 | 7036 ft | 173 kts | 34° |
| 2026-04-23 17:41 | -29.21391 | -50.31524 | 7033 ft | 171 kts | 34° |
| 2026-04-23 17:42 | -29.19506 | -50.29851 | 7032 ft | 171 kts | 35° |
| 2026-04-23 17:42 | -29.18568 | -50.29019 | 7030 ft | 170 kts | 35° |
| 2026-04-23 17:42 | -29.17645 | -50.28201 | 7027 ft | 169 kts | 35° |
| 2026-04-23 17:43 | -29.16715 | -50.27375 | 7029 ft | 169 kts | 34° |
| 2026-04-23 17:43 | -29.15792 | -50.26556 | 7027 ft | 167 kts | 34° |
| 2026-04-23 17:43 | -29.14866 | -50.25738 | 7025 ft | 168 kts | 34° |
| 2026-04-23 17:43 | -29.13939 | -50.24916 | 7027 ft | 169 kts | 35° |
| 2026-04-23 17:44 | -29.13012 | -50.24093 | 7025 ft | 169 kts | 35° |
| 2026-04-23 17:44 | -29.12080 | -50.23269 | 7022 ft | 169 kts | 35° |
| 2026-04-23 17:44 | -29.10219 | -50.21622 | 7022 ft | 170 kts | 35° |
| 2026-04-23 17:45 | -29.09284 | -50.20792 | 7027 ft | 170 kts | 35° |
| 2026-04-23 17:45 | -29.07411 | -50.19136 | 7027 ft | 171 kts | 34° |
| 2026-04-23 17:45 | -29.06476 | -50.18306 | 7025 ft | 169 kts | 35° |
| 2026-04-23 17:46 | -29.04927 | -50.16939 | 7022 ft | 168 kts | 35° |
| 2026-04-23 17:46 | -29.04000 | -50.16121 | 7026 ft | 169 kts | 34° |
| 2026-04-23 17:46 | -29.03069 | -50.15297 | 7019 ft | 168 kts | 35° |
| 2026-04-23 17:47 | -29.02148 | -50.14481 | 7024 ft | 169 kts | 34° |
| 2026-04-23 17:47 | -29.01128 | -50.13582 | 7025 ft | 167 kts | 33° |
| 2026-04-23 17:47 | -28.99616 | -50.12245 | 7030 ft | 163 kts | 35° |
| 2026-04-23 17:48 | -28.98709 | -50.11452 | 7035 ft | 165 kts | 34° |
| 2026-04-23 17:48 | -28.97793 | -50.10640 | 7037 ft | 168 kts | 35° |
| 2026-04-23 17:48 | -28.96869 | -50.09823 | 7040 ft | 169 kts | 34° |
| 2026-04-23 17:48 | -28.95948 | -50.09011 | 7047 ft | 169 kts | 35° |
| 2026-04-23 17:49 | -28.95017 | -50.08187 | 7039 ft | 169 kts | 34° |
| 2026-04-23 17:49 | -28.94084 | -50.07363 | 7033 ft | 170 kts | 35° |
| 2026-04-23 17:49 | -28.93149 | -50.06540 | 7037 ft | 170 kts | 36° |
| 2026-04-23 17:49 | -28.92211 | -50.05718 | 7036 ft | 170 kts | 34° |
| 2026-04-23 17:50 | -28.91274 | -50.04888 | 7038 ft | 170 kts | 35° |
| 2026-04-23 17:50 | -28.89407 | -50.03244 | 7039 ft | 168 kts | 36° |
| 2026-04-23 17:50 | -28.88487 | -50.02435 | 7030 ft | 166 kts | 36° |
| 2026-04-23 17:51 | -28.87569 | -50.01625 | 7030 ft | 167 kts | 36° |
| 2026-04-23 17:51 | -28.86648 | -50.00816 | 7035 ft | 168 kts | 35° |
| 2026-04-23 17:51 | -28.85350 | -49.99669 | 7036 ft | 169 kts | 36° |
| 2026-04-23 17:52 | -28.84413 | -49.98849 | 7030 ft | 170 kts | 35° |
| 2026-04-23 17:52 | -28.82551 | -49.97212 | 7026 ft | 168 kts | 35° |
| 2026-04-23 17:52 | -28.81625 | -49.96399 | 7023 ft | 168 kts | 36° |
| 2026-04-23 17:53 | -28.79791 | -49.94787 | 7030 ft | 167 kts | 36° |
| 2026-04-23 17:53 | -28.78867 | -49.93974 | 7026 ft | 169 kts | 35° |
| 2026-04-23 17:53 | -28.77937 | -49.93157 | 7030 ft | 168 kts | 35° |
| 2026-04-23 17:54 | -28.77015 | -49.92347 | 7033 ft | 167 kts | 36° |
| 2026-04-23 17:54 | -28.76090 | -49.91536 | 7036 ft | 168 kts | 34° |
| 2026-04-23 17:54 | -28.74255 | -49.89928 | 7029 ft | 166 kts | 35° |
| 2026-04-23 17:55 | -28.72422 | -49.88317 | 7029 ft | 168 kts | 35° |
| 2026-04-23 17:55 | -28.71499 | -49.87508 | 7027 ft | 166 kts | 36° |
| 2026-04-23 17:55 | -28.70597 | -49.86718 | 7025 ft | 165 kts | 35° |
| 2026-04-23 17:56 | -28.69672 | -49.85910 | 7027 ft | 166 kts | 35° |
| 2026-04-23 17:56 | -28.68155 | -49.83938 | 7033 ft | 167 kts | 47° |
| 2026-04-23 17:56 | -28.67403 | -49.82923 | 7023 ft | 168 kts | 47° |
| 2026-04-23 17:57 | -28.66655 | -49.81903 | 7020 ft | 167 kts | 48° |
| 2026-04-23 17:57 | -28.65922 | -49.80902 | 7021 ft | 165 kts | 48° |
| 2026-04-23 17:57 | -28.64454 | -49.78897 | 7017 ft | 164 kts | 48° |
| 2026-04-23 17:58 | -28.63726 | -49.77899 | 7024 ft | 162 kts | 47° |
| 2026-04-23 17:58 | -28.62998 | -49.76910 | 7018 ft | 164 kts | 47° |
| 2026-04-23 17:58 | -28.62283 | -49.75937 | 7017 ft | 161 kts | 47° |
| 2026-04-23 17:58 | -28.61547 | -49.74932 | 7025 ft | 165 kts | 48° |
| 2026-04-23 17:59 | -28.60822 | -49.73938 | 7028 ft | 166 kts | 48° |
| 2026-04-23 17:59 | -28.60083 | -49.72931 | 7031 ft | 166 kts | 48° |
| 2026-04-23 17:59 | -28.59343 | -49.71924 | 7030 ft | 166 kts | 48° |
| 2026-04-23 17:59 | -28.58607 | -49.70920 | 7028 ft | 165 kts | 48° |
| 2026-04-23 18:00 | -28.57868 | -49.69913 | 7024 ft | 166 kts | 48° |
| 2026-04-23 18:00 | -28.57127 | -49.68904 | 7025 ft | 166 kts | 47° |
| 2026-04-23 18:00 | -28.56386 | -49.67896 | 7023 ft | 166 kts | 48° |
| 2026-04-23 18:00 | -28.55653 | -49.66896 | 7023 ft | 163 kts | 48° |
| 2026-04-23 18:01 | -28.54924 | -49.65903 | 7019 ft | 163 kts | 47° |
| 2026-04-23 18:01 | -28.54195 | -49.64912 | 7015 ft | 164 kts | 49° |
| 2026-04-23 18:01 | -28.53466 | -49.63922 | 7021 ft | 163 kts | 48° |
| 2026-04-23 18:01 | -28.52738 | -49.62930 | 7022 ft | 165 kts | 48° |
| 2026-04-23 18:02 | -28.51999 | -49.61926 | 7015 ft | 166 kts | 47° |
| 2026-04-23 18:02 | -28.51261 | -49.60921 | 7017 ft | 165 kts | 47° |
| 2026-04-23 18:02 | -28.50523 | -49.59918 | 7020 ft | 165 kts | 47° |
| 2026-04-23 18:02 | -28.49787 | -49.58917 | 7015 ft | 165 kts | 47° |
| 2026-04-23 18:03 | -28.49060 | -49.57929 | 7016 ft | 165 kts | 49° |
| 2026-04-23 18:03 | -28.48324 | -49.56930 | 7018 ft | 165 kts | 47° |
| 2026-04-23 18:03 | -28.47588 | -49.55931 | 7025 ft | 165 kts | 48° |
| 2026-04-23 18:03 | -28.46838 | -49.54916 | 7023 ft | 165 kts | 47° |
| 2026-04-23 18:04 | -28.46114 | -49.53930 | 7017 ft | 164 kts | 48° |
| 2026-04-23 18:04 | -28.45379 | -49.52930 | 7015 ft | 165 kts | 48° |
| 2026-04-23 18:04 | -28.44645 | -49.51939 | 7016 ft | 163 kts | 47° |
| 2026-04-23 18:04 | -28.43915 | -49.50949 | 7015 ft | 163 kts | 49° |
| 2026-04-23 18:05 | -28.43179 | -49.49949 | 7019 ft | 166 kts | 47° |
| 2026-04-23 18:05 | -28.42442 | -49.48948 | 7012 ft | 164 kts | 47° |
| 2026-04-23 18:05 | -28.41708 | -49.47955 | 7016 ft | 165 kts | 48° |
| 2026-04-23 18:05 | -28.40971 | -49.46955 | 7017 ft | 165 kts | 47° |
| 2026-04-23 18:06 | -28.40230 | -49.45952 | 7021 ft | 165 kts | 48° |
| 2026-04-23 18:06 | -28.39502 | -49.44966 | 7013 ft | 166 kts | 48° |
| 2026-04-23 18:06 | -28.38756 | -49.43955 | 7007 ft | 165 kts | 47° |
| 2026-04-23 18:06 | -28.38019 | -49.42956 | 7007 ft | 164 kts | 47° |
| 2026-04-23 18:07 | -28.37293 | -49.41975 | 7011 ft | 164 kts | 47° |
| 2026-04-23 18:07 | -28.36557 | -49.40980 | 7011 ft | 165 kts | 48° |
| 2026-04-23 18:07 | -28.35821 | -49.39983 | 7014 ft | 165 kts | 48° |
| 2026-04-23 18:07 | -28.35083 | -49.38985 | 7016 ft | 166 kts | 48° |
| 2026-04-23 18:08 | -28.34582 | -49.38309 | 7010 ft | 166 kts | 48° |
| 2026-04-23 18:08 | -28.33600 | -49.36979 | 7004 ft | 166 kts | 48° |
| 2026-04-23 18:08 | -28.32858 | -49.35975 | 7011 ft | 166 kts | 48° |
| 2026-04-23 18:08 | -28.32114 | -49.34970 | 7012 ft | 166 kts | 48° |
| 2026-04-23 18:09 | -28.31416 | -49.34030 | 7009 ft | 166 kts | 48° |
| 2026-04-23 18:09 | -28.30675 | -49.33030 | 7010 ft | 165 kts | 48° |
| 2026-04-23 18:09 | -28.29942 | -49.32041 | 7010 ft | 166 kts | 48° |
| 2026-04-23 18:09 | -28.29201 | -49.31040 | 7009 ft | 165 kts | 48° |
| 2026-04-23 18:10 | -28.28462 | -49.30042 | 6999 ft | 166 kts | 48° |
| 2026-04-23 18:10 | -28.27720 | -49.29038 | 7004 ft | 165 kts | 48° |
| 2026-04-23 18:10 | -28.26979 | -49.28040 | 6998 ft | 165 kts | 48° |
| 2026-04-23 18:10 | -28.26236 | -49.27038 | 7007 ft | 166 kts | 48° |
| 2026-04-23 18:11 | -28.25504 | -49.26050 | 7003 ft | 166 kts | 48° |
| 2026-04-23 18:11 | -28.24851 | -49.25171 | 6999 ft | 167 kts | 48° |
| 2026-04-23 18:11 | -28.24103 | -49.24161 | 7000 ft | 167 kts | 48° |
| 2026-04-23 18:11 | -28.23355 | -49.23155 | 7002 ft | 167 kts | 47° |
| 2026-04-23 18:12 | -28.22608 | -49.22147 | 7001 ft | 167 kts | 48° |
| 2026-04-23 18:12 | -28.21860 | -49.21140 | 7004 ft | 167 kts | 48° |
| 2026-04-23 18:12 | -28.21112 | -49.20135 | 7003 ft | 166 kts | 49° |
| 2026-04-23 18:12 | -28.20369 | -49.19133 | 7001 ft | 166 kts | 49° |
| 2026-04-23 18:13 | -28.19630 | -49.18139 | 6994 ft | 166 kts | 49° |
| 2026-04-23 18:13 | -28.18886 | -49.17138 | 6987 ft | 166 kts | 48° |
| 2026-04-23 18:13 | -28.18142 | -49.16135 | 6999 ft | 166 kts | 48° |
| 2026-04-23 18:13 | -28.17393 | -49.15129 | 6992 ft | 167 kts | 49° |
| 2026-04-23 18:14 | -28.16643 | -49.14121 | 6991 ft | 167 kts | 49° |
| 2026-04-23 18:14 | -28.15894 | -49.13113 | 6998 ft | 167 kts | 48° |
| 2026-04-23 18:14 | -28.15145 | -49.12106 | 6997 ft | 167 kts | 48° |
| 2026-04-23 18:14 | -28.14396 | -49.11102 | 6986 ft | 167 kts | 49° |
| 2026-04-23 18:15 | -28.13646 | -49.10093 | 6995 ft | 168 kts | 48° |
| 2026-04-23 18:15 | -28.12895 | -49.09084 | 6998 ft | 168 kts | 49° |
| 2026-04-23 18:15 | -28.12143 | -49.08075 | 6994 ft | 168 kts | 48° |
| 2026-04-23 18:15 | -28.11391 | -49.07066 | 6999 ft | 168 kts | 48° |
| 2026-04-23 18:16 | -28.10641 | -49.06058 | 6998 ft | 167 kts | 49° |
| 2026-04-23 18:16 | -28.09903 | -49.05071 | 6998 ft | 166 kts | 49° |
| 2026-04-23 18:16 | -28.09158 | -49.04071 | 6994 ft | 166 kts | 49° |
| 2026-04-23 18:17 | -28.07655 | -49.02054 | 7000 ft | 168 kts | 49° |
| 2026-04-23 18:17 | -28.06898 | -49.01037 | 6997 ft | 169 kts | 49° |
| 2026-04-23 18:17 | -28.06141 | -49.00024 | 6990 ft | 168 kts | 48° |
| 2026-04-23 18:17 | -28.05388 | -48.99017 | 6996 ft | 167 kts | 49° |
| 2026-04-23 18:18 | -28.04636 | -48.98008 | 6988 ft | 168 kts | 49° |
| 2026-04-23 18:18 | -28.03885 | -48.97004 | 6996 ft | 167 kts | 49° |
| 2026-04-23 18:18 | -28.03135 | -48.96001 | 6990 ft | 167 kts | 49° |
| 2026-04-23 18:18 | -28.02385 | -48.94994 | 6989 ft | 167 kts | 49° |
| 2026-04-23 18:19 | -28.01634 | -48.93988 | 6993 ft | 167 kts | 49° |
| 2026-04-23 18:19 | -28.00893 | -48.92998 | 6987 ft | 167 kts | 49° |
| 2026-04-23 18:19 | -28.00131 | -48.91980 | 6988 ft | 168 kts | 49° |
| 2026-04-23 18:19 | -27.99387 | -48.90986 | 6995 ft | 168 kts | 49° |
| 2026-04-23 18:20 | -27.98634 | -48.89977 | 6991 ft | 168 kts | 49° |
| 2026-04-23 18:20 | -27.97880 | -48.88969 | 6992 ft | 168 kts | 49° |
| 2026-04-23 18:20 | -27.97124 | -48.87960 | 6989 ft | 168 kts | 49° |
| 2026-04-23 18:20 | -27.96370 | -48.86952 | 6992 ft | 168 kts | 49° |
| 2026-04-23 18:21 | -27.95613 | -48.85941 | 6988 ft | 168 kts | 49° |
| 2026-04-23 18:21 | -27.94856 | -48.84929 | 6996 ft | 168 kts | 49° |
| 2026-04-23 18:21 | -27.94098 | -48.83917 | 6995 ft | 169 kts | 49° |
| 2026-04-23 18:21 | -27.93338 | -48.82904 | 6993 ft | 168 kts | 49° |
| 2026-04-23 18:22 | -27.92581 | -48.81896 | 6992 ft | 168 kts | 49° |
| 2026-04-23 18:22 | -27.91824 | -48.80884 | 6990 ft | 168 kts | 49° |
| 2026-04-23 18:22 | -27.91070 | -48.79879 | 6987 ft | 168 kts | 49° |
| 2026-04-23 18:22 | -27.90325 | -48.78885 | 6982 ft | 168 kts | 49° |
| 2026-04-23 18:23 | -27.89815 | -48.78204 | 6986 ft | 168 kts | 49° |
| 2026-04-23 18:23 | -27.88050 | -48.75853 | 6982 ft | 168 kts | 49° |
| 2026-04-23 18:24 | -27.86536 | -48.73836 | 6971 ft | 167 kts | 49° |
| 2026-04-23 18:24 | -27.85782 | -48.72832 | 6978 ft | 168 kts | 50° |
| 2026-04-23 18:24 | -27.85021 | -48.71853 | 6974 ft | 168 kts | 42° |
| 2026-04-23 18:25 | -27.82887 | -48.71185 | 6975 ft | 166 kts | 349° |
| 2026-04-23 18:25 | -27.81782 | -48.71533 | 6972 ft | 165 kts | 344° |
| 2026-04-23 18:25 | -27.80672 | -48.71883 | 6977 ft | 166 kts | 344° |
| 2026-04-23 18:25 | -27.79562 | -48.72236 | 6979 ft | 166 kts | 344° |
| 2026-04-23 18:26 | -27.78449 | -48.72592 | 6973 ft | 166 kts | 344° |
| 2026-04-23 18:26 | -27.77335 | -48.72949 | 6971 ft | 166 kts | 344° |
| 2026-04-23 18:26 | -27.76222 | -48.73306 | 6979 ft | 166 kts | 344° |
| 2026-04-23 18:26 | -27.75107 | -48.73662 | 6979 ft | 167 kts | 344° |
| 2026-04-23 18:27 | -27.73992 | -48.74019 | 6972 ft | 167 kts | 344° |
| 2026-04-23 18:27 | -27.72873 | -48.74376 | 6973 ft | 167 kts | 344° |
| 2026-04-23 18:27 | -27.71756 | -48.74733 | 6961 ft | 168 kts | 344° |
| 2026-04-23 18:27 | -27.70618 | -48.75095 | 6823 ft | 170 kts | 344° |
| 2026-04-23 18:28 | -27.69482 | -48.75458 | 6682 ft | 169 kts | 344° |
| 2026-04-23 18:28 | -27.68346 | -48.75821 | 6540 ft | 169 kts | 344° |
| 2026-04-23 18:28 | -27.67210 | -48.76184 | 6395 ft | 170 kts | 344° |
| 2026-04-23 18:28 | -27.66076 | -48.76546 | 6246 ft | 170 kts | 344° |
| 2026-04-23 18:29 | -27.64939 | -48.76909 | 6098 ft | 170 kts | 345° |
| 2026-04-23 18:29 | -27.63806 | -48.77271 | 5951 ft | 170 kts | 345° |
| 2026-04-23 18:29 | -27.62687 | -48.77628 | 5808 ft | 170 kts | 345° |
| 2026-04-23 18:29 | -27.61559 | -48.77987 | 5662 ft | 170 kts | 345° |
| 2026-04-23 18:30 | -27.60418 | -48.78351 | 5520 ft | 170 kts | 345° |
| 2026-04-23 18:30 | -27.59277 | -48.78715 | 5374 ft | 170 kts | 346° |
| 2026-04-23 18:30 | -27.58115 | -48.78808 | 5235 ft | 168 kts | 11° |
| 2026-04-23 18:30 | -27.57038 | -48.78319 | 5111 ft | 166 kts | 37° |
| 2026-04-23 18:31 | -27.56272 | -48.77406 | 5111 ft | 158 kts | 60° |
| 2026-04-23 18:31 | -27.55911 | -48.76282 | 5109 ft | 154 kts | 83° |
| 2026-04-23 18:31 | -27.55967 | -48.75095 | 5108 ft | 152 kts | 105° |
| 2026-04-23 18:31 | -27.56416 | -48.74026 | 5108 ft | 152 kts | 122° |
| 2026-04-23 18:32 | -27.56969 | -48.73018 | 5104 ft | 151 kts | 121° |
| 2026-04-23 18:32 | -27.57524 | -48.71985 | 4949 ft | 158 kts | 121° |
| 2026-04-23 18:32 | -27.58111 | -48.70912 | 4713 ft | 163 kts | 121° |
| 2026-04-23 18:32 | -27.58704 | -48.69812 | 4469 ft | 166 kts | 121° |
| 2026-04-23 18:33 | -27.59301 | -48.68696 | 4226 ft | 166 kts | 121° |
| 2026-04-23 18:33 | -27.59894 | -48.67592 | 3980 ft | 162 kts | 121° |
| 2026-04-23 18:33 | -27.60472 | -48.66517 | 3734 ft | 159 kts | 121° |
| 2026-04-23 18:33 | -27.61049 | -48.65454 | 3486 ft | 158 kts | 122° |
| 2026-04-23 18:34 | -27.61630 | -48.64399 | 3174 ft | 157 kts | 122° |
| 2026-04-23 18:34 | -27.62212 | -48.63361 | 2856 ft | 154 kts | 123° |
| 2026-04-23 18:34 | -27.62756 | -48.62406 | 2547 ft | 141 kts | 123° |
| 2026-04-23 18:34 | -27.63278 | -48.61502 | 2225 ft | 136 kts | 122° |
| 2026-04-23 18:35 | -27.63785 | -48.60631 | 2002 ft | 126 kts | 122° |
| 2026-04-23 18:35 | -27.64241 | -48.59856 | 1988 ft | 114 kts | 122° |
| 2026-04-23 18:35 | -27.64652 | -48.59129 | 1982 ft | 104 kts | 115° |
| 2026-04-23 18:35 | -27.64937 | -48.58469 | 1871 ft | 88 kts | 114° |
| 2026-04-23 18:36 | -27.65204 | -48.57858 | 1646 ft | 84 kts | 114° |
| 2026-04-23 18:36 | -27.65380 | -48.57475 | 1550 ft | 86 kts | 113° |
| 2026-04-23 18:36 | -27.65650 | -48.56872 | 1319 ft | 85 kts | 111° |
| 2026-04-23 18:36 | -27.65928 | -48.56322 | 922 ft | 79 kts | 116° |
| 2026-04-23 18:37 | -27.66196 | -48.55812 | 569 ft | 73 kts | 121° |
| 2026-04-23 18:37 | -27.66463 | -48.55331 | 308 ft | 69 kts | 118° |
| 2026-04-23 18:37 | -27.66702 | -48.54865 | 133 ft | 66 kts | 121° |
| 2026-04-23 18:37 | -27.66912 | -48.54467 | 20 ft | 48 kts | 122° |
| 2026-04-23 18:38 | -27.67048 | -48.54222 | 19 ft | 30 kts | 121° |
| 2026-04-23 18:38 | -27.67156 | -48.54015 | 17 ft | 34 kts | 124° |
| 2026-04-23 18:38 | -27.67275 | -48.53809 | 15 ft | 28 kts | 124° |
| 2026-04-23 18:38 | -27.67303 | -48.53661 | 17 ft | 3 kts | 135° |
| 2026-04-23 18:39 | -27.67306 | -48.53659 | 17 ft | 0 kts | 163° |